sensor_id;sensor_type;location;lat;lon;timestamp;P1;durP1;ratioP1;P2;durP2;ratioP2
58808;SDS011;44579;51.672;7.834;2023-10-19T00:03:52;5.80;;;3.10;;
58808;SDS011;44579;51.672;7.834;2023-10-19T00:06:22;9.18;;;3.05;;
58808;SDS011;44579;51.672;7.834;2023-10-19T00:08:49;7.65;;;2.97;;
58808;SDS011;44579;51.672;7.834;2023-10-19T00:11:18;4.70;;;2.40;;
58808;SDS011;44579;51.672;7.834;2023-10-19T00:13:53;3.05;;;2.15;;
58808;SDS011;44579;51.672;7.834;2023-10-19T00:18:56;2.47;;;1.55;;
58808;SDS011;44579;51.672;7.834;2023-10-19T00:21:29;3.28;;;2.08;;
58808;SDS011;44579;51.672;7.834;2023-10-19T00:24:03;6.45;;;2.13;;
58808;SDS011;44579;51.672;7.834;2023-10-19T00:26:31;4.40;;;2.03;;
58808;SDS011;44579;51.672;7.834;2023-10-19T00:28:59;3.53;;;2.80;;
58808;SDS011;44579;51.672;7.834;2023-10-19T00:31:41;5.80;;;3.90;;
58808;SDS011;44579;51.672;7.834;2023-10-19T00:34:08;3.63;;;2.35;;
58808;SDS011;44579;51.672;7.834;2023-10-19T00:36:40;12.68;;;3.00;;
58808;SDS011;44579;51.672;7.834;2023-10-19T00:39:12;7.03;;;2.83;;
58808;SDS011;44579;51.672;7.834;2023-10-19T00:41:47;3.63;;;2.25;;
58808;SDS011;44579;51.672;7.834;2023-10-19T00:44:14;7.40;;;2.70;;
58808;SDS011;44579;51.672;7.834;2023-10-19T00:47:06;1.77;;;1.00;;
58808;SDS011;44579;51.672;7.834;2023-10-19T00:49:38;2.45;;;1.35;;
58808;SDS011;44579;51.672;7.834;2023-10-19T00:52:06;6.20;;;2.58;;
58808;SDS011;44579;51.672;7.834;2023-10-19T00:54:46;8.23;;;1.85;;
58808;SDS011;44579;51.672;7.834;2023-10-19T00:57:18;4.55;;;2.65;;
58808;SDS011;44579;51.672;7.834;2023-10-19T01:00:05;2.58;;;1.10;;
58808;SDS011;44579;51.672;7.834;2023-10-19T01:02:47;2.15;;;1.42;;
58808;SDS011;44579;51.672;7.834;2023-10-19T01:05:17;3.80;;;2.63;;
58808;SDS011;44579;51.672;7.834;2023-10-19T01:07:48;3.97;;;2.80;;
58808;SDS011;44579;51.672;7.834;2023-10-19T01:10:23;4.65;;;2.38;;
58808;SDS011;44579;51.672;7.834;2023-10-19T01:12:50;4.53;;;2.78;;
58808;SDS011;44579;51.672;7.834;2023-10-19T01:17:55;7.38;;;3.58;;
58808;SDS011;44579;51.672;7.834;2023-10-19T01:20:25;6.00;;;2.63;;
58808;SDS011;44579;51.672;7.834;2023-10-19T01:23:03;5.40;;;3.05;;
58808;SDS011;44579;51.672;7.834;2023-10-19T01:28:25;4.35;;;3.03;;
58808;SDS011;44579;51.672;7.834;2023-10-19T01:31:13;4.30;;;2.53;;
58808;SDS011;44579;51.672;7.834;2023-10-19T01:33:43;5.25;;;3.05;;
58808;SDS011;44579;51.672;7.834;2023-10-19T01:36:11;4.97;;;2.80;;
58808;SDS011;44579;51.672;7.834;2023-10-19T01:38:59;2.95;;;1.35;;
58808;SDS011;44579;51.672;7.834;2023-10-19T01:41:37;7.00;;;3.17;;
58808;SDS011;44579;51.672;7.834;2023-10-19T01:44:07;4.32;;;2.55;;
58808;SDS011;44579;51.672;7.834;2023-10-19T01:46:40;3.05;;;1.75;;
58808;SDS011;44579;51.672;7.834;2023-10-19T01:49:13;4.50;;;3.22;;
58808;SDS011;44579;51.672;7.834;2023-10-19T01:51:47;5.13;;;3.00;;
58808;SDS011;44579;51.672;7.834;2023-10-19T01:56:43;4.80;;;2.97;;
58808;SDS011;44579;51.672;7.834;2023-10-19T01:59:10;4.18;;;2.38;;
58808;SDS011;44579;51.672;7.834;2023-10-19T02:01:38;7.22;;;3.78;;
58808;SDS011;44579;51.672;7.834;2023-10-19T02:04:09;4.78;;;2.80;;
58808;SDS011;44579;51.672;7.834;2023-10-19T02:09:05;5.18;;;2.45;;
58808;SDS011;44579;51.672;7.834;2023-10-19T02:11:49;8.88;;;4.05;;
58808;SDS011;44579;51.672;7.834;2023-10-19T02:14:22;7.32;;;3.47;;
58808;SDS011;44579;51.672;7.834;2023-10-19T02:16:52;5.55;;;3.47;;
58808;SDS011;44579;51.672;7.834;2023-10-19T02:19:23;5.97;;;3.28;;
58808;SDS011;44579;51.672;7.834;2023-10-19T02:21:53;5.40;;;2.65;;
58808;SDS011;44579;51.672;7.834;2023-10-19T02:24:25;4.20;;;3.00;;
58808;SDS011;44579;51.672;7.834;2023-10-19T02:26:56;4.18;;;3.10;;
58808;SDS011;44579;51.672;7.834;2023-10-19T02:29:24;6.35;;;3.30;;
58808;SDS011;44579;51.672;7.834;2023-10-19T02:31:54;5.57;;;3.40;;
58808;SDS011;44579;51.672;7.834;2023-10-19T02:34:23;8.13;;;3.90;;
58808;SDS011;44579;51.672;7.834;2023-10-19T02:36:51;4.57;;;3.40;;
58808;SDS011;44579;51.672;7.834;2023-10-19T02:39:18;5.60;;;3.05;;
58808;SDS011;44579;51.672;7.834;2023-10-19T02:41:46;5.10;;;3.47;;
58808;SDS011;44579;51.672;7.834;2023-10-19T02:44:16;9.80;;;3.15;;
58808;SDS011;44579;51.672;7.834;2023-10-19T02:46:53;5.13;;;3.40;;
58808;SDS011;44579;51.672;7.834;2023-10-19T02:49:27;7.07;;;3.92;;
58808;SDS011;44579;51.672;7.834;2023-10-19T02:51:56;4.28;;;2.92;;
58808;SDS011;44579;51.672;7.834;2023-10-19T02:54:30;5.68;;;3.47;;
58808;SDS011;44579;51.672;7.834;2023-10-19T02:57:02;4.20;;;3.35;;
58808;SDS011;44579;51.672;7.834;2023-10-19T02:59:33;6.25;;;3.53;;
58808;SDS011;44579;51.672;7.834;2023-10-19T03:02:03;10.45;;;4.13;;
58808;SDS011;44579;51.672;7.834;2023-10-19T03:04:42;6.95;;;3.42;;
58808;SDS011;44579;51.672;7.834;2023-10-19T03:07:10;6.57;;;4.10;;
58808;SDS011;44579;51.672;7.834;2023-10-19T03:09:41;6.35;;;3.83;;
58808;SDS011;44579;51.672;7.834;2023-10-19T03:12:16;5.45;;;3.83;;
58808;SDS011;44579;51.672;7.834;2023-10-19T03:14:43;4.88;;;3.45;;
58808;SDS011;44579;51.672;7.834;2023-10-19T03:17:15;6.18;;;3.28;;
58808;SDS011;44579;51.672;7.834;2023-10-19T03:19:42;8.35;;;4.00;;
58808;SDS011;44579;51.672;7.834;2023-10-19T03:22:17;9.60;;;3.83;;
58808;SDS011;44579;51.672;7.834;2023-10-19T03:26:27;4.90;;;3.45;;
58808;SDS011;44579;51.672;7.834;2023-10-19T03:29:17;6.50;;;3.60;;
58808;SDS011;44579;51.672;7.834;2023-10-19T03:31:58;4.55;;;3.38;;
58808;SDS011;44579;51.672;7.834;2023-10-19T03:34:28;6.30;;;4.03;;
58808;SDS011;44579;51.672;7.834;2023-10-19T03:37:02;7.10;;;4.47;;
58808;SDS011;44579;51.672;7.834;2023-10-19T03:39:33;8.00;;;3.88;;
58808;SDS011;44579;51.672;7.834;2023-10-19T03:42:00;6.28;;;3.65;;
58808;SDS011;44579;51.672;7.834;2023-10-19T03:44:28;5.07;;;3.65;;
58808;SDS011;44579;51.672;7.834;2023-10-19T03:47:06;6.65;;;4.20;;
58808;SDS011;44579;51.672;7.834;2023-10-19T03:49:38;6.30;;;4.28;;
58808;SDS011;44579;51.672;7.834;2023-10-19T03:52:06;6.00;;;3.92;;
58808;SDS011;44579;51.672;7.834;2023-10-19T03:54:37;5.65;;;3.65;;
58808;SDS011;44579;51.672;7.834;2023-10-19T03:57:11;7.43;;;4.13;;
58808;SDS011;44579;51.672;7.834;2023-10-19T03:59:39;5.75;;;4.25;;
58808;SDS011;44579;51.672;7.834;2023-10-19T04:04:37;4.40;;;2.90;;
58808;SDS011;44579;51.672;7.834;2023-10-19T04:07:06;7.47;;;3.97;;
58808;SDS011;44579;51.672;7.834;2023-10-19T04:12:27;5.97;;;3.42;;
58808;SDS011;44579;51.672;7.834;2023-10-19T04:15:00;5.68;;;3.88;;
58808;SDS011;44579;51.672;7.834;2023-10-19T04:17:48;6.55;;;3.75;;
58808;SDS011;44579;51.672;7.834;2023-10-19T04:20:18;4.88;;;3.45;;
58808;SDS011;44579;51.672;7.834;2023-10-19T04:25:13;3.58;;;2.47;;
58808;SDS011;44579;51.672;7.834;2023-10-19T04:27:53;6.53;;;3.17;;
58808;SDS011;44579;51.672;7.834;2023-10-19T04:30:24;5.13;;;3.00;;
58808;SDS011;44579;51.672;7.834;2023-10-19T04:32:51;5.05;;;3.13;;
58808;SDS011;44579;51.672;7.834;2023-10-19T04:40:17;8.90;;;3.15;;
58808;SDS011;44579;51.672;7.834;2023-10-19T04:42:49;3.85;;;2.65;;
58808;SDS011;44579;51.672;7.834;2023-10-19T04:45:18;8.77;;;2.80;;
58808;SDS011;44579;51.672;7.834;2023-10-19T04:47:45;3.50;;;2.50;;
58808;SDS011;44579;51.672;7.834;2023-10-19T04:50:18;8.52;;;2.75;;
58808;SDS011;44579;51.672;7.834;2023-10-19T04:52:45;5.10;;;3.00;;
58808;SDS011;44579;51.672;7.834;2023-10-19T04:55:13;4.07;;;2.70;;
58808;SDS011;44579;51.672;7.834;2023-10-19T04:57:40;7.25;;;2.75;;
58808;SDS011;44579;51.672;7.834;2023-10-19T05:00:07;4.35;;;2.45;;
58808;SDS011;44579;51.672;7.834;2023-10-19T05:02:40;7.88;;;2.35;;
58808;SDS011;44579;51.672;7.834;2023-10-19T05:05:08;5.47;;;2.40;;
58808;SDS011;44579;51.672;7.834;2023-10-19T05:07:35;6.38;;;2.63;;
58808;SDS011;44579;51.672;7.834;2023-10-19T05:10:03;3.70;;;2.80;;
58808;SDS011;44579;51.672;7.834;2023-10-19T05:12:31;3.03;;;2.30;;
58808;SDS011;44579;51.672;7.834;2023-10-19T05:14:59;4.55;;;2.50;;
58808;SDS011;44579;51.672;7.834;2023-10-19T05:17:26;5.13;;;2.42;;
58808;SDS011;44579;51.672;7.834;2023-10-19T05:19:54;6.10;;;2.50;;
58808;SDS011;44579;51.672;7.834;2023-10-19T05:22:23;8.75;;;2.70;;
58808;SDS011;44579;51.672;7.834;2023-10-19T05:24:52;4.15;;;2.47;;
58808;SDS011;44579;51.672;7.834;2023-10-19T05:27:19;5.25;;;2.33;;
58808;SDS011;44579;51.672;7.834;2023-10-19T05:29:49;4.47;;;2.40;;
58808;SDS011;44579;51.672;7.834;2023-10-19T05:32:20;8.27;;;2.70;;
58808;SDS011;44579;51.672;7.834;2023-10-19T05:34:47;9.68;;;2.65;;
58808;SDS011;44579;51.672;7.834;2023-10-19T05:37:15;12.75;;;2.80;;
58808;SDS011;44579;51.672;7.834;2023-10-19T05:39:43;10.60;;;2.80;;
58808;SDS011;44579;51.672;7.834;2023-10-19T05:44:38;3.13;;;2.70;;
58808;SDS011;44579;51.672;7.834;2023-10-19T05:47:05;7.68;;;3.40;;
58808;SDS011;44579;51.672;7.834;2023-10-19T05:52:01;10.77;;;3.25;;
58808;SDS011;44579;51.672;7.834;2023-10-19T05:54:30;10.98;;;3.40;;
58808;SDS011;44579;51.672;7.834;2023-10-19T05:56:58;11.55;;;3.92;;
58808;SDS011;44579;51.672;7.834;2023-10-19T05:59:27;14.57;;;3.47;;
58808;SDS011;44579;51.672;7.834;2023-10-19T06:01:58;10.65;;;3.40;;
58808;SDS011;44579;51.672;7.834;2023-10-19T06:04:25;6.68;;;3.63;;
58808;SDS011;44579;51.672;7.834;2023-10-19T06:06:52;10.45;;;4.07;;
58808;SDS011;44579;51.672;7.834;2023-10-19T06:09:19;11.82;;;3.75;;
58808;SDS011;44579;51.672;7.834;2023-10-19T06:11:56;6.45;;;3.75;;
58808;SDS011;44579;51.672;7.834;2023-10-19T06:14:23;12.18;;;4.07;;
58808;SDS011;44579;51.672;7.834;2023-10-19T06:16:51;10.98;;;3.53;;
58808;SDS011;44579;51.672;7.834;2023-10-19T06:19:19;7.70;;;3.55;;
58808;SDS011;44579;51.672;7.834;2023-10-19T06:21:47;10.23;;;4.05;;
58808;SDS011;44579;51.672;7.834;2023-10-19T06:24:14;10.55;;;3.78;;
58808;SDS011;44579;51.672;7.834;2023-10-19T06:26:42;11.50;;;3.38;;
58808;SDS011;44579;51.672;7.834;2023-10-19T06:29:13;15.63;;;4.10;;
58808;SDS011;44579;51.672;7.834;2023-10-19T06:31:48;14.20;;;4.93;;
58808;SDS011;44579;51.672;7.834;2023-10-19T06:34:17;11.00;;;4.53;;
58808;SDS011;44579;51.672;7.834;2023-10-19T06:36:49;13.27;;;4.88;;
58808;SDS011;44579;51.672;7.834;2023-10-19T06:39:20;11.63;;;5.63;;
58808;SDS011;44579;51.672;7.834;2023-10-19T06:41:49;19.38;;;6.07;;
58808;SDS011;44579;51.672;7.834;2023-10-19T06:44:34;16.75;;;6.25;;
58808;SDS011;44579;51.672;7.834;2023-10-19T06:47:01;16.20;;;5.78;;
58808;SDS011;44579;51.672;7.834;2023-10-19T06:49:32;12.77;;;5.95;;
58808;SDS011;44579;51.672;7.834;2023-10-19T06:52:00;17.98;;;6.03;;
58808;SDS011;44579;51.672;7.834;2023-10-19T06:54:33;19.33;;;6.38;;
58808;SDS011;44579;51.672;7.834;2023-10-19T06:57:03;20.85;;;7.03;;
58808;SDS011;44579;51.672;7.834;2023-10-19T06:59:31;13.07;;;6.38;;
58808;SDS011;44579;51.672;7.834;2023-10-19T07:01:59;22.20;;;7.13;;
58808;SDS011;44579;51.672;7.834;2023-10-19T07:04:28;16.13;;;7.20;;
58808;SDS011;44579;51.672;7.834;2023-10-19T07:06:56;13.93;;;7.05;;
58808;SDS011;44579;51.672;7.834;2023-10-19T07:09:23;22.50;;;7.68;;
58808;SDS011;44579;51.672;7.834;2023-10-19T07:12:07;16.83;;;6.15;;
58808;SDS011;44579;51.672;7.834;2023-10-19T07:15:04;18.73;;;6.95;;
58808;SDS011;44579;51.672;7.834;2023-10-19T07:17:34;19.42;;;7.72;;
58808;SDS011;44579;51.672;7.834;2023-10-19T07:20:02;15.52;;;6.80;;
58808;SDS011;44579;51.672;7.834;2023-10-19T07:22:46;25.70;;;6.75;;
58808;SDS011;44579;51.672;7.834;2023-10-19T07:25:14;18.83;;;6.53;;
58808;SDS011;44579;51.672;7.834;2023-10-19T07:27:42;22.30;;;6.70;;
58808;SDS011;44579;51.672;7.834;2023-10-19T07:30:14;14.68;;;5.47;;
58808;SDS011;44579;51.672;7.834;2023-10-19T07:32:57;27.27;;;6.85;;
58808;SDS011;44579;51.672;7.834;2023-10-19T07:35:40;15.50;;;6.32;;
58808;SDS011;44579;51.672;7.834;2023-10-19T07:38:10;13.77;;;6.10;;
58808;SDS011;44579;51.672;7.834;2023-10-19T07:40:37;26.48;;;7.38;;
58808;SDS011;44579;51.672;7.834;2023-10-19T07:43:05;31.75;;;7.05;;
58808;SDS011;44579;51.672;7.834;2023-10-19T07:45:32;23.50;;;6.35;;
58808;SDS011;44579;51.672;7.834;2023-10-19T07:48:01;22.15;;;6.53;;
58808;SDS011;44579;51.672;7.834;2023-10-19T07:50:33;14.48;;;6.60;;
58808;SDS011;44579;51.672;7.834;2023-10-19T07:53:04;21.45;;;6.18;;
58808;SDS011;44579;51.672;7.834;2023-10-19T07:55:31;16.02;;;5.85;;
58808;SDS011;44579;51.672;7.834;2023-10-19T07:58:00;24.27;;;6.47;;
58808;SDS011;44579;51.672;7.834;2023-10-19T08:00:30;47.55;;;6.95;;
58808;SDS011;44579;51.672;7.834;2023-10-19T08:05:25;15.40;;;5.90;;
58808;SDS011;44579;51.672;7.834;2023-10-19T08:07:53;14.27;;;5.93;;
58808;SDS011;44579;51.672;7.834;2023-10-19T08:10:20;67.30;;;9.13;;
58808;SDS011;44579;51.672;7.834;2023-10-19T08:12:48;208.48;;;15.48;;
58808;SDS011;44579;51.672;7.834;2023-10-19T08:15:16;323.13;;;22.48;;
58808;SDS011;44579;51.672;7.834;2023-10-19T08:17:47;85.78;;;9.77;;
58808;SDS011;44579;51.672;7.834;2023-10-19T08:20:16;45.80;;;7.60;;
58808;SDS011;44579;51.672;7.834;2023-10-19T08:23:03;35.70;;;6.45;;
58808;SDS011;44579;51.672;7.834;2023-10-19T08:25:32;29.75;;;6.40;;
58808;SDS011;44579;51.672;7.834;2023-10-19T08:30:57;20.50;;;6.47;;
58808;SDS011;44579;51.672;7.834;2023-10-19T08:33:28;36.47;;;6.43;;
58808;SDS011;44579;51.672;7.834;2023-10-19T08:35:57;95.70;;;10.02;;
58808;SDS011;44579;51.672;7.834;2023-10-19T08:38:27;86.95;;;10.93;;
58808;SDS011;44579;51.672;7.834;2023-10-19T08:43:22;88.88;;;8.68;;
58808;SDS011;44579;51.672;7.834;2023-10-19T08:45:51;41.70;;;7.88;;
58808;SDS011;44579;51.672;7.834;2023-10-19T08:48:19;15.27;;;6.18;;
58808;SDS011;44579;51.672;7.834;2023-10-19T08:50:47;27.85;;;6.43;;
58808;SDS011;44579;51.672;7.834;2023-10-19T08:53:15;12.40;;;4.40;;
58808;SDS011;44579;51.672;7.834;2023-10-19T08:55:46;15.73;;;4.65;;
58808;SDS011;44579;51.672;7.834;2023-10-19T08:58:16;12.05;;;5.07;;
58808;SDS011;44579;51.672;7.834;2023-10-19T09:00:46;11.30;;;5.20;;
58808;SDS011;44579;51.672;7.834;2023-10-19T09:03:26;13.20;;;4.97;;
58808;SDS011;44579;51.672;7.834;2023-10-19T09:05:55;35.28;;;7.18;;
58808;SDS011;44579;51.672;7.834;2023-10-19T09:08:23;122.60;;;11.20;;
58808;SDS011;44579;51.672;7.834;2023-10-19T09:10:52;209.80;;;19.70;;
58808;SDS011;44579;51.672;7.834;2023-10-19T09:13:21;68.05;;;7.65;;
58808;SDS011;44579;51.672;7.834;2023-10-19T09:15:54;13.30;;;4.70;;
58808;SDS011;44579;51.672;7.834;2023-10-19T09:18:34;8.82;;;4.30;;
58808;SDS011;44579;51.672;7.834;2023-10-19T09:21:03;24.00;;;4.65;;
58808;SDS011;44579;51.672;7.834;2023-10-19T09:23:35;6.38;;;3.58;;
58808;SDS011;44579;51.672;7.834;2023-10-19T09:26:03;9.85;;;3.97;;
58808;SDS011;44579;51.672;7.834;2023-10-19T09:28:36;15.77;;;4.28;;
58808;SDS011;44579;51.672;7.834;2023-10-19T09:31:04;55.70;;;5.97;;
58808;SDS011;44579;51.672;7.834;2023-10-19T09:33:36;25.00;;;4.43;;
58808;SDS011;44579;51.672;7.834;2023-10-19T09:36:12;11.93;;;3.60;;
58808;SDS011;44579;51.672;7.834;2023-10-19T09:38:48;11.05;;;3.38;;
58808;SDS011;44579;51.672;7.834;2023-10-19T09:41:21;7.18;;;2.83;;
58808;SDS011;44579;51.672;7.834;2023-10-19T09:44:02;9.73;;;2.80;;
58808;SDS011;44579;51.672;7.834;2023-10-19T09:46:37;7.93;;;3.10;;
58808;SDS011;44579;51.672;7.834;2023-10-19T09:49:06;5.00;;;2.78;;
58808;SDS011;44579;51.672;7.834;2023-10-19T09:51:41;7.60;;;2.72;;
58808;SDS011;44579;51.672;7.834;2023-10-19T09:54:52;8.52;;;2.85;;
58808;SDS011;44579;51.672;7.834;2023-10-19T09:58:12;8.32;;;2.30;;
58808;SDS011;44579;51.672;7.834;2023-10-19T10:00:18;6.45;;;2.67;;
58808;SDS011;44579;51.672;7.834;2023-10-19T10:02:53;76.63;;;6.95;;
58808;SDS011;44579;51.672;7.834;2023-10-19T10:10:45;5.38;;;2.08;;
58808;SDS011;44579;51.672;7.834;2023-10-19T10:16:02;8.05;;;2.28;;
58808;SDS011;44579;51.672;7.834;2023-10-19T10:18:31;5.15;;;1.75;;
58808;SDS011;44579;51.672;7.834;2023-10-19T10:21:05;5.45;;;1.95;;
58808;SDS011;44579;51.672;7.834;2023-10-19T10:23:42;3.53;;;1.60;;
58808;SDS011;44579;51.672;7.834;2023-10-19T10:26:14;7.35;;;2.05;;
58808;SDS011;44579;51.672;7.834;2023-10-19T10:28:45;1.70;;;1.30;;
58808;SDS011;44579;51.672;7.834;2023-10-19T10:31:19;6.43;;;1.60;;
58808;SDS011;44579;51.672;7.834;2023-10-19T10:33:51;3.70;;;1.48;;
58808;SDS011;44579;51.672;7.834;2023-10-19T10:36:23;4.05;;;1.70;;
58808;SDS011;44579;51.672;7.834;2023-10-19T10:38:53;7.78;;;1.33;;
58808;SDS011;44579;51.672;7.834;2023-10-19T10:41:31;5.47;;;1.45;;
58808;SDS011;44579;51.672;7.834;2023-10-19T10:43:58;3.60;;;1.55;;
58808;SDS011;44579;51.672;7.834;2023-10-19T10:48:56;6.93;;;1.33;;
58808;SDS011;44579;51.672;7.834;2023-10-19T10:51:24;6.38;;;1.50;;
58808;SDS011;44579;51.672;7.834;2023-10-19T10:53:56;6.15;;;1.40;;
58808;SDS011;44579;51.672;7.834;2023-10-19T10:56:24;2.92;;;1.50;;
58808;SDS011;44579;51.672;7.834;2023-10-19T11:01:28;4.85;;;1.27;;
58808;SDS011;44579;51.672;7.834;2023-10-19T11:04:06;3.25;;;1.33;;
58808;SDS011;44579;51.672;7.834;2023-10-19T11:06:55;2.83;;;1.40;;
58808;SDS011;44579;51.672;7.834;2023-10-19T11:09:22;4.60;;;1.98;;
58808;SDS011;44579;51.672;7.834;2023-10-19T11:11:50;8.77;;;1.50;;
58808;SDS011;44579;51.672;7.834;2023-10-19T11:14:20;3.28;;;1.73;;
58808;SDS011;44579;51.672;7.834;2023-10-19T11:16:51;5.38;;;2.20;;
58808;SDS011;44579;51.672;7.834;2023-10-19T11:19:18;3.95;;;1.50;;
58808;SDS011;44579;51.672;7.834;2023-10-19T11:21:54;3.28;;;1.20;;
58808;SDS011;44579;51.672;7.834;2023-10-19T11:24:26;4.60;;;1.52;;
58808;SDS011;44579;51.672;7.834;2023-10-19T11:26:57;5.60;;;1.33;;
58808;SDS011;44579;51.672;7.834;2023-10-19T11:29:27;6.70;;;1.58;;
58808;SDS011;44579;51.672;7.834;2023-10-19T11:32:00;4.40;;;1.35;;
58808;SDS011;44579;51.672;7.834;2023-10-19T11:34:29;2.53;;;1.27;;
58808;SDS011;44579;51.672;7.834;2023-10-19T11:36:57;5.88;;;1.33;;
58808;SDS011;44579;51.672;7.834;2023-10-19T11:39:27;4.55;;;1.55;;
58808;SDS011;44579;51.672;7.834;2023-10-19T11:41:55;8.02;;;1.40;;
58808;SDS011;44579;51.672;7.834;2023-10-19T11:44:22;4.57;;;1.02;;
58808;SDS011;44579;51.672;7.834;2023-10-19T11:46:49;5.15;;;1.42;;
58808;SDS011;44579;51.672;7.834;2023-10-19T11:49:16;3.75;;;1.30;;
58808;SDS011;44579;51.672;7.834;2023-10-19T11:54:10;3.45;;;1.23;;
58808;SDS011;44579;51.672;7.834;2023-10-19T11:56:39;2.40;;;1.20;;
58808;SDS011;44579;51.672;7.834;2023-10-19T11:59:06;2.60;;;1.17;;
58808;SDS011;44579;51.672;7.834;2023-10-19T12:01:33;12.15;;;1.27;;
58808;SDS011;44579;51.672;7.834;2023-10-19T12:04:01;9.68;;;1.38;;
58808;SDS011;44579;51.672;7.834;2023-10-19T12:06:29;7.63;;;1.23;;
58808;SDS011;44579;51.672;7.834;2023-10-19T12:08:56;6.03;;;1.48;;
58808;SDS011;44579;51.672;7.834;2023-10-19T12:11:44;8.32;;;1.30;;
58808;SDS011;44579;51.672;7.834;2023-10-19T12:14:14;7.85;;;1.65;;
58808;SDS011;44579;51.672;7.834;2023-10-19T12:19:08;3.03;;;1.10;;
58808;SDS011;44579;51.672;7.834;2023-10-19T12:24:04;9.15;;;1.58;;
58808;SDS011;44579;51.672;7.834;2023-10-19T12:26:32;5.05;;;1.50;;
58808;SDS011;44579;51.672;7.834;2023-10-19T12:29:00;12.88;;;1.30;;
58808;SDS011;44579;51.672;7.834;2023-10-19T12:31:28;3.15;;;1.27;;
58808;SDS011;44579;51.672;7.834;2023-10-19T12:33:58;8.15;;;1.48;;
58808;SDS011;44579;51.672;7.834;2023-10-19T12:36:25;7.93;;;1.75;;
58808;SDS011;44579;51.672;7.834;2023-10-19T12:38:59;4.95;;;1.52;;
58808;SDS011;44579;51.672;7.834;2023-10-19T12:41:29;2.67;;;1.20;;
58808;SDS011;44579;51.672;7.834;2023-10-19T12:43:59;3.97;;;1.20;;
58808;SDS011;44579;51.672;7.834;2023-10-19T12:46:35;8.13;;;1.40;;
58808;SDS011;44579;51.672;7.834;2023-10-19T12:49:15;3.40;;;1.20;;
58808;SDS011;44579;51.672;7.834;2023-10-19T12:51:44;6.85;;;1.25;;
58808;SDS011;44579;51.672;7.834;2023-10-19T12:54:12;5.65;;;1.10;;
58808;SDS011;44579;51.672;7.834;2023-10-19T12:56:40;3.88;;;1.30;;
58808;SDS011;44579;51.672;7.834;2023-10-19T12:59:08;5.95;;;1.17;;
58808;SDS011;44579;51.672;7.834;2023-10-19T13:01:35;8.52;;;1.60;;
58808;SDS011;44579;51.672;7.834;2023-10-19T13:04:07;7.30;;;1.15;;
58808;SDS011;44579;51.672;7.834;2023-10-19T13:06:43;6.35;;;1.20;;
58808;SDS011;44579;51.672;7.834;2023-10-19T13:09:13;5.03;;;1.45;;
58808;SDS011;44579;51.672;7.834;2023-10-19T13:11:45;4.40;;;1.48;;
58808;SDS011;44579;51.672;7.834;2023-10-19T13:14:13;6.82;;;1.10;;
58808;SDS011;44579;51.672;7.834;2023-10-19T13:16:41;5.13;;;1.08;;
58808;SDS011;44579;51.672;7.834;2023-10-19T13:19:11;1.90;;;0.98;;
58808;SDS011;44579;51.672;7.834;2023-10-19T13:21:40;5.00;;;1.10;;
58808;SDS011;44579;51.672;7.834;2023-10-19T13:24:09;7.63;;;2.05;;
58808;SDS011;44579;51.672;7.834;2023-10-19T13:26:36;7.38;;;1.40;;
58808;SDS011;44579;51.672;7.834;2023-10-19T13:29:07;3.13;;;1.27;;
58808;SDS011;44579;51.672;7.834;2023-10-19T13:31:34;6.68;;;1.25;;
58808;SDS011;44579;51.672;7.834;2023-10-19T13:41:33;11.38;;;1.42;;
58808;SDS011;44579;51.672;7.834;2023-10-19T13:44:00;3.92;;;1.17;;
58808;SDS011;44579;51.672;7.834;2023-10-19T13:46:32;3.70;;;1.40;;
58808;SDS011;44579;51.672;7.834;2023-10-19T13:50:08;10.77;;;1.60;;
58808;SDS011;44579;51.672;7.834;2023-10-19T13:52:56;7.40;;;1.50;;
58808;SDS011;44579;51.672;7.834;2023-10-19T13:55:35;8.15;;;1.75;;
58808;SDS011;44579;51.672;7.834;2023-10-19T13:58:38;13.43;;;1.63;;
58808;SDS011;44579;51.672;7.834;2023-10-19T14:01:11;6.45;;;1.42;;
58808;SDS011;44579;51.672;7.834;2023-10-19T14:03:44;4.50;;;1.23;;
58808;SDS011;44579;51.672;7.834;2023-10-19T14:06:14;8.35;;;1.40;;
58808;SDS011;44579;51.672;7.834;2023-10-19T14:09:28;5.35;;;1.20;;
58808;SDS011;44579;51.672;7.834;2023-10-19T14:12:23;3.47;;;1.20;;
58808;SDS011;44579;51.672;7.834;2023-10-19T14:14:53;6.68;;;1.70;;
58808;SDS011;44579;51.672;7.834;2023-10-19T14:17:50;6.05;;;1.65;;
58808;SDS011;44579;51.672;7.834;2023-10-19T14:20:52;3.97;;;1.30;;
58808;SDS011;44579;51.672;7.834;2023-10-19T14:23:43;7.93;;;1.45;;
58808;SDS011;44579;51.672;7.834;2023-10-19T14:26:15;9.90;;;1.33;;
58808;SDS011;44579;51.672;7.834;2023-10-19T14:29:10;7.00;;;1.50;;
58808;SDS011;44579;51.672;7.834;2023-10-19T14:31:43;8.75;;;1.63;;
58808;SDS011;44579;51.672;7.834;2023-10-19T14:34:16;8.63;;;1.73;;
58808;SDS011;44579;51.672;7.834;2023-10-19T14:36:48;5.13;;;1.55;;
58808;SDS011;44579;51.672;7.834;2023-10-19T14:39:52;3.97;;;1.67;;
58808;SDS011;44579;51.672;7.834;2023-10-19T14:42:25;11.73;;;1.65;;
58808;SDS011;44579;51.672;7.834;2023-10-19T14:45:34;5.78;;;1.60;;
58808;SDS011;44579;51.672;7.834;2023-10-19T14:48:14;3.38;;;1.58;;
58808;SDS011;44579;51.672;7.834;2023-10-19T14:50:57;4.20;;;1.70;;
58808;SDS011;44579;51.672;7.834;2023-10-19T14:53:26;9.32;;;1.83;;
58808;SDS011;44579;51.672;7.834;2023-10-19T14:55:54;9.45;;;1.90;;
58808;SDS011;44579;51.672;7.834;2023-10-19T14:58:23;10.65;;;1.92;;
58808;SDS011;44579;51.672;7.834;2023-10-19T15:00:52;11.27;;;2.00;;
58808;SDS011;44579;51.672;7.834;2023-10-19T15:03:22;19.58;;;3.20;;
58808;SDS011;44579;51.672;7.834;2023-10-19T15:05:52;13.18;;;2.15;;
58808;SDS011;44579;51.672;7.834;2023-10-19T15:08:24;10.07;;;1.70;;
58808;SDS011;44579;51.672;7.834;2023-10-19T15:10:55;6.28;;;1.75;;
58808;SDS011;44579;51.672;7.834;2023-10-19T15:13:22;7.95;;;1.90;;
58808;SDS011;44579;51.672;7.834;2023-10-19T15:15:49;14.43;;;1.98;;
58808;SDS011;44579;51.672;7.834;2023-10-19T15:18:18;6.00;;;1.42;;
58808;SDS011;44579;51.672;7.834;2023-10-19T15:20:45;4.85;;;1.30;;
58808;SDS011;44579;51.672;7.834;2023-10-19T15:23:13;6.40;;;1.90;;
58808;SDS011;44579;51.672;7.834;2023-10-19T15:25:40;13.48;;;1.67;;
58808;SDS011;44579;51.672;7.834;2023-10-19T15:28:07;8.43;;;1.50;;
58808;SDS011;44579;51.672;7.834;2023-10-19T15:30:36;6.43;;;1.30;;
58808;SDS011;44579;51.672;7.834;2023-10-19T15:33:04;8.88;;;1.20;;
58808;SDS011;44579;51.672;7.834;2023-10-19T15:35:31;7.38;;;1.92;;
58808;SDS011;44579;51.672;7.834;2023-10-19T15:38:02;4.43;;;1.10;;
58808;SDS011;44579;51.672;7.834;2023-10-19T15:40:31;3.70;;;1.52;;
58808;SDS011;44579;51.672;7.834;2023-10-19T15:42:58;5.47;;;1.60;;
58808;SDS011;44579;51.672;7.834;2023-10-19T15:45:28;8.30;;;1.80;;
58808;SDS011;44579;51.672;7.834;2023-10-19T15:47:58;12.50;;;1.92;;
58808;SDS011;44579;51.672;7.834;2023-10-19T15:50:27;5.40;;;1.70;;
58808;SDS011;44579;51.672;7.834;2023-10-19T15:55:22;5.10;;;1.42;;
58808;SDS011;44579;51.672;7.834;2023-10-19T15:57:49;6.25;;;1.67;;
58808;SDS011;44579;51.672;7.834;2023-10-19T16:00:17;8.05;;;1.67;;
58808;SDS011;44579;51.672;7.834;2023-10-19T16:02:46;6.10;;;2.03;;
58808;SDS011;44579;51.672;7.834;2023-10-19T16:05:13;4.38;;;1.52;;
58808;SDS011;44579;51.672;7.834;2023-10-19T16:07:42;5.38;;;1.80;;
58808;SDS011;44579;51.672;7.834;2023-10-19T16:10:11;10.98;;;1.90;;
58808;SDS011;44579;51.672;7.834;2023-10-19T16:12:39;6.45;;;1.90;;
58808;SDS011;44579;51.672;7.834;2023-10-19T16:15:07;5.95;;;1.83;;
58808;SDS011;44579;51.672;7.834;2023-10-19T16:20:10;5.07;;;1.92;;
58808;SDS011;44579;51.672;7.834;2023-10-19T16:22:39;7.28;;;2.28;;
58808;SDS011;44579;51.672;7.834;2023-10-19T16:27:34;6.57;;;2.42;;
58808;SDS011;44579;51.672;7.834;2023-10-19T16:30:01;7.22;;;2.70;;